Time;durP1;ratioP1;P1;durP2;ratioP2;P2;SDS_P1;SDS_P2;PMS_P1;PMS_P2;Temp;Humidity;BMP_temperature;BMP_pressure;BME280_temperature;BME280_humidity;BME280_pressure;Samples;Min_cycle;Max_cycle;Signal;HPM_P1;HPM_P2
2022/04/02 00:04:16;;;;;;;6.05;1.88;;;1.10;99.90;;;;;;12445649;28;20061;-84
2022/04/02 00:10:18;;;;;;;3.88;1.60;;;1.00;99.90;;;;;;12452007;28;20050;-86
2022/04/02 00:16:20;;;;;;;4.90;1.50;;;1.00;99.90;;;;;;12437449;28;20054;-83
2022/04/02 00:22:21;;;;;;;2.78;1.50;;;1.00;99.90;;;;;;12456651;28;20405;-83
2022/04/02 00:28:23;;;;;;;3.85;1.63;;;1.00;99.90;;;;;;12451750;28;20105;-83
2022/04/02 00:34:25;;;;;;;6.82;2.20;;;0.90;99.90;;;;;;12442312;28;20114;-86
2022/04/02 00:40:28;;;;;;;6.80;1.73;;;0.90;99.90;;;;;;12436810;28;20045;-86
2022/04/02 00:46:30;;;;;;;5.55;2.00;;;0.80;99.90;;;;;;12440400;28;20045;-87
2022/04/02 00:52:32;;;;;;;4.45;1.80;;;0.80;99.90;;;;;;12452900;28;20046;-86
2022/04/02 00:58:34;;;;;;;3.42;1.60;;;0.90;99.90;;;;;;12457361;28;20088;-84
2022/04/02 01:04:36;;;;;;;4.65;1.70;;;0.80;99.90;;;;;;12464939;28;20064;-84
2022/04/02 01:10:39;;;;;;;3.20;1.60;;;0.80;99.90;;;;;;12460640;28;20207;-83
2022/04/02 01:16:41;;;;;;;4.78;1.67;;;0.90;99.90;;;;;;12446150;28;20053;-87
2022/04/02 01:22:43;;;;;;;3.53;1.42;;;0.80;99.90;;;;;;12444731;28;20088;-83
2022/04/02 01:28:53;;;;;;;4.20;1.47;;;0.80;99.90;;;;;;12434901;28;20534;-83
2022/04/02 01:34:55;;;;;;;3.42;1.38;;;0.70;99.90;;;;;;12431823;28;20136;-86
2022/04/02 01:40:57;;;;;;;3.67;1.48;;;0.60;99.90;;;;;;12427054;28;20486;-83
2022/04/02 01:47:00;;;;;;;5.00;1.48;;;0.60;99.90;;;;;;12430274;28;20069;-86
2022/04/02 01:53:02;;;;;;;4.40;1.25;;;0.60;99.90;;;;;;12428449;28;20049;-86
2022/04/02 01:59:03;;;;;;;3.95;1.48;;;0.50;99.90;;;;;;12435290;28;20064;-86
2022/04/02 02:05:06;;;;;;;2.85;1.52;;;0.50;99.90;;;;;;12426081;28;20050;-83
2022/04/02 02:11:08;;;;;;;3.15;1.48;;;0.40;99.90;;;;;;12424788;28;20050;-86
2022/04/02 02:17:09;;;;;;;2.17;1.33;;;0.30;99.90;;;;;;12415811;28;20072;-82
2022/04/02 02:23:11;;;;;;;3.50;1.45;;;0.40;99.90;;;;;;12416295;28;20103;-83
2022/04/02 02:29:14;;;;;;;3.80;2.03;;;0.30;99.90;;;;;;12416986;28;20077;-86
2022/04/02 02:41:36;;;;;;;3.35;1.65;;;0.30;99.90;;;;;;12442590;28;20068;-82
2022/04/02 02:47:38;;;;;;;4.00;1.80;;;0.30;99.90;;;;;;12428006;28;20054;-85
2022/04/02 02:53:41;;;;;;;4.88;1.58;;;0.30;99.90;;;;;;12424016;28;20057;-85
2022/04/02 02:59:43;;;;;;;3.42;1.65;;;0.30;99.90;;;;;;12425006;28;20057;-85
2022/04/02 03:05:46;;;;;;;4.18;1.80;;;0.30;99.90;;;;;;12425556;28;21195;-85
2022/04/02 03:11:49;;;;;;;4.95;1.83;;;0.30;99.90;;;;;;12430471;28;20477;-84
2022/04/02 03:17:52;;;;;;;4.88;1.98;;;0.30;99.90;;;;;;12422766;28;20087;-83
2022/04/02 03:23:55;;;;;;;5.13;2.10;;;0.40;99.90;;;;;;12421591;28;20581;-85
2022/04/02 03:29:57;;;;;;;2.90;1.60;;;0.30;99.90;;;;;;12421286;28;20506;-82
2022/04/02 03:35:58;;;;;;;6.45;1.95;;;0.30;99.90;;;;;;12421673;28;20129;-85
2022/04/02 03:42:01;;;;;;;5.85;2.08;;;0.40;99.90;;;;;;12418882;28;20073;-82
2022/04/02 03:48:03;;;;;;;3.45;1.73;;;0.30;99.90;;;;;;12417614;28;20054;-82
2022/04/02 03:54:05;;;;;;;3.55;1.67;;;0.30;99.90;;;;;;12417943;28;20562;-85
2022/04/02 04:00:08;;;;;;;3.88;1.55;;;0.30;99.90;;;;;;12416605;28;20054;-85
2022/04/02 04:06:10;;;;;;;3.03;1.73;;;0.30;99.90;;;;;;12434540;28;20025;-83
2022/04/02 04:12:14;;;;;;;3.75;1.63;;;0.30;99.90;;;;;;12468305;28;20049;-85
2022/04/02 04:18:16;;;;;;;3.42;1.73;;;0.30;99.90;;;;;;12451114;28;20054;-85
2022/04/02 04:24:18;;;;;;;4.07;1.80;;;0.30;99.90;;;;;;12436316;28;20410;-82
2022/04/02 04:30:20;;;;;;;5.97;1.88;;;0.30;99.90;;;;;;12429320;28;20078;-83
2022/04/02 04:36:24;;;;;;;4.05;1.85;;;0.30;99.90;;;;;;12423740;28;20168;-85
2022/04/02 04:42:26;;;;;;;;;;;0.40;99.90;;;;;;12428147;28;20505;-82
2022/04/02 04:48:29;;;;;;;5.50;1.90;;;0.30;99.90;;;;;;12425515;28;19929;-83
2022/04/02 04:54:30;;;;;;;4.35;1.90;;;0.40;99.90;;;;;;12423970;28;20103;-82
2022/04/02 05:00:33;;;;;;;4.35;1.85;;;0.40;99.90;;;;;;12431799;28;20112;-85
2022/04/02 05:06:36;;;;;;;3.90;1.90;;;0.40;99.90;;;;;;12421121;28;20054;-85
2022/04/02 05:12:38;;;;;;;3.05;1.40;;;0.30;99.90;;;;;;12446286;28;20104;-82
2022/04/02 05:18:40;;;;;;;3.72;1.77;;;0.40;99.90;;;;;;12432365;28;20058;-86
2022/04/02 05:24:42;;;;;;;3.80;2.00;;;0.40;99.90;;;;;;12429247;28;20501;-83
2022/04/02 05:30:44;;;;;;;3.08;1.55;;;0.30;99.90;;;;;;12433496;28;20074;-85
2022/04/02 05:36:46;;;;;;;4.05;2.35;;;0.30;99.90;;;;;;12424611;28;20057;-82
2022/04/02 05:42:48;;;;;;;3.42;1.80;;;0.30;99.90;;;;;;12424575;28;20049;-86
2022/04/02 05:48:49;;;;;;;5.35;2.08;;;0.40;99.90;;;;;;12441925;28;20111;-86
2022/04/02 05:54:51;;;;;;;5.38;1.85;;;0.40;99.90;;;;;;12432116;28;20060;-81
2022/04/02 06:00:53;;;;;;;3.85;1.83;;;0.40;99.90;;;;;;12415494;28;20056;-85
2022/04/02 06:06:55;;;;;;;3.83;1.73;;;0.60;99.90;;;;;;12432328;28;20645;-85
2022/04/02 06:12:57;;;;;;;3.90;2.00;;;0.80;99.90;;;;;;12421866;28;20054;-82
2022/04/02 06:18:59;;;;;;;5.78;1.98;;;0.70;99.90;;;;;;12431023;28;20111;-86
2022/04/02 06:25:01;;;;;;;3.60;1.90;;;0.80;99.90;;;;;;12420415;28;20042;-83
2022/04/02 06:31:04;;;;;;;6.18;1.92;;;0.70;99.90;;;;;;12420342;28;20063;-83
2022/04/02 06:37:06;;;;;;;3.83;2.08;;;0.90;99.90;;;;;;12426924;28;20045;-86
2022/04/02 06:43:08;;;;;;;7.30;2.00;;;1.10;99.90;;;;;;12420784;28;20103;-86
2022/04/02 06:49:10;;;;;;;5.13;1.92;;;1.10;99.90;;;;;;12417492;28;20510;-86
2022/04/02 06:55:15;;;;;;;3.38;2.10;;;1.20;99.90;;;;;;12415841;28;21183;-86
2022/04/02 07:01:17;;;;;;;3.57;2.43;;;1.40;99.90;;;;;;12438432;28;20097;-85
2022/04/02 07:07:19;;;;;;;7.20;2.28;;;1.60;99.90;;;;;;12420497;28;20046;-85
2022/04/02 07:13:23;;;;;;;5.65;2.63;;;1.50;99.90;;;;;;12430503;28;20042;-86
2022/04/02 07:19:27;;;;;;;5.37;2.90;;;1.60;99.90;;;;;;12449873;28;20095;-83
2022/04/02 07:25:30;;;;;;;5.07;2.58;;;1.60;99.90;;;;;;12428806;28;20099;-82
2022/04/02 07:31:32;;;;;;;6.68;3.33;;;1.80;99.90;;;;;;12428628;28;20446;-84
2022/04/02 07:38:07;;;;;;;6.13;3.15;;;1.80;99.90;;;;;;12432151;28;20068;-81
2022/04/02 07:44:20;;;;;;;5.13;3.13;;;1.90;99.90;;;;;;12383647;28;20049;-85
2022/04/02 07:50:24;;;;;;;5.45;2.75;;;1.80;99.90;;;;;;12431961;28;20103;-82
2022/04/02 07:56:35;;;;;;;5.03;2.97;;;2.20;99.90;;;;;;12431203;28;20056;-82
2022/04/02 08:02:39;;;;;;;6.82;2.80;;;2.00;99.90;;;;;;12442810;28;20132;-85
2022/04/02 08:08:42;;;;;;;6.33;3.53;;;2.20;99.90;;;;;;12436797;28;20057;-85
2022/04/02 08:14:45;;;;;;;5.18;3.00;;;2.20;99.90;;;;;;12438841;28;20053;-80
2022/04/02 08:20:49;;;;;;;4.63;2.63;;;2.60;99.90;;;;;;12433719;28;20521;-84
2022/04/02 08:27:16;;;;;;;5.87;2.67;;;2.70;99.90;;;;;;12428944;28;20116;-81
2022/04/02 08:33:43;;;;;;;6.78;2.88;;;2.80;99.90;;;;;;12441406;28;20053;-82
2022/04/02 08:40:21;;;;;;;5.25;2.40;;;3.30;99.90;;;;;;12453115;28;20465;-85
2022/04/02 08:47:01;;;;;;;5.78;3.20;;;3.70;99.90;;;;;;12433047;28;20045;-85
2022/04/02 08:53:16;;;;;;;4.43;2.53;;;3.20;99.90;;;;;;12426534;28;20137;-81
2022/04/02 08:59:35;;;;;;;5.25;2.70;;;3.30;99.90;;;;;;12435062;28;20065;-84
2022/04/02 09:06:05;;;;;;;5.07;2.90;;;3.70;99.90;;;;;;12430040;28;20080;-83
2022/04/02 09:12:25;;;;;;;10.18;2.60;;;3.80;99.90;;;;;;12417608;28;20049;-81
2022/04/02 09:18:48;;;;;;;5.03;2.80;;;4.00;99.90;;;;;;12430679;28;20108;-85
2022/04/02 09:25:20;;;;;;;4.80;3.10;;;4.20;99.90;;;;;;12438264;28;20099;-85
2022/04/02 09:31:46;;;;;;;5.10;2.60;;;4.30;99.90;;;;;;12442498;28;20069;-85
2022/04/02 09:38:01;;;;;;;4.22;2.58;;;4.30;99.90;;;;;;12443445;28;20061;-82
2022/04/02 09:44:29;;;;;;;3.63;2.20;;;4.20;99.90;;;;;;12435302;28;20041;-84
2022/04/02 09:50:31;;;;;;;5.00;2.83;;;4.70;99.90;;;;;;12435341;28;20046;-87
2022/04/02 09:56:35;;;;;;;3.67;2.10;;;4.40;99.90;;;;;;12445540;28;20125;-82
2022/04/02 10:02:49;;;;;;;6.23;2.47;;;4.30;99.90;;;;;;12436604;28;20496;-83
2022/04/02 10:09:10;;;;;;;3.97;2.55;;;4.70;99.90;;;;;;12434685;28;20057;-82
2022/04/02 10:15:14;;;;;;;4.75;2.00;;;5.20;99.90;;;;;;12439042;28;20058;-82
2022/04/02 10:21:18;;;;;;;3.80;2.20;;;5.10;99.90;;;;;;12443883;28;20080;-87
2022/04/02 10:27:31;;;;;;;3.55;2.17;;;5.20;99.90;;;;;;12433583;28;20057;-87
2022/04/02 10:33:36;;;;;;;5.15;2.17;;;4.60;99.90;;;;;;12437388;28;20049;-83
2022/04/02 10:39:51;;;;;;;4.18;1.88;;;4.70;99.90;;;;;;12427112;28;20430;-86
2022/04/02 10:45:54;;;;;;;6.45;2.20;;;5.40;99.90;;;;;;12431005;28;20058;-86
2022/04/02 10:52:00;;;;;;;3.53;2.03;;;5.70;99.90;;;;;;12439991;28;20572;-82
2022/04/02 10:58:10;;;;;;;4.32;2.20;;;5.10;99.90;;;;;;12433942;28;20053;-83
2022/04/02 11:04:34;;;;;;;5.35;2.25;;;4.60;99.90;;;;;;12433003;28;20422;-86
2022/04/02 11:10:37;;;;;;;3.92;2.50;;;4.20;99.90;;;;;;12451298;28;20123;-82
2022/04/02 11:16:40;;;;;;;4.75;2.15;;;3.80;99.90;;;;;;12445930;28;20038;-83
2022/04/02 11:22:57;;;;;;;3.10;1.80;;;3.50;99.90;;;;;;12427240;28;20091;-86
2022/04/02 11:29:02;;;;;;;3.47;1.92;;;3.30;99.90;;;;;;12435170;28;20049;-85
2022/04/02 11:35:12;;;;;;;4.45;1.60;;;3.50;99.90;;;;;;12424832;28;20545;-84
2022/04/02 11:41:20;;;;;;;3.80;1.70;;;3.70;99.90;;;;;;12423127;28;20151;-84
2022/04/02 11:47:28;;;;;;;4.82;1.83;;;4.10;99.90;;;;;;12419213;28;20077;-84
2022/04/02 11:53:30;;;;;;;3.33;1.42;;;4.50;99.90;;;;;;12421528;28;20139;-82
2022/04/02 11:59:34;;;;;;;3.55;1.75;;;5.00;99.90;;;;;;12435091;28;20049;-85
2022/04/02 12:05:43;;;;;;;2.75;1.60;;;5.50;99.90;;;;;;12428021;28;20077;-85
2022/04/02 12:12:00;;;;;;;2.72;1.30;;;5.90;99.90;;;;;;12435004;28;20054;-82
2022/04/02 12:18:08;;;;;;;3.15;1.40;;;5.20;99.90;;;;;;12426470;28;20648;-83
2022/04/02 12:24:11;;;;;;;3.20;1.50;;;5.50;99.90;;;;;;12429693;28;20041;-82
2022/04/02 12:30:19;;;;;;;3.92;1.50;;;5.70;99.90;;;;;;12436580;28;20430;-85
2022/04/02 12:36:33;;;;;;;3.65;1.20;;;6.30;99.90;;;;;;12437219;28;20049;-82
2022/04/02 12:42:45;;;;;;;2.22;1.15;;;6.40;99.90;;;;;;12437157;28;20518;-84
2022/04/02 12:48:46;;;;;;;2.88;1.30;;;5.70;99.90;;;;;;12442089;28;20041;-82
2022/04/02 12:54:53;;;;;;;2.83;1.30;;;5.60;99.90;;;;;;12453711;28;20050;-81
2022/04/02 13:01:10;;;;;;;2.25;1.40;;;6.10;99.90;;;;;;12429777;28;20053;-82
2022/04/02 13:07:19;;;;;;;4.13;1.10;;;6.30;99.90;;;;;;12430090;28;20577;-82
2022/04/02 13:13:41;;;;;;;3.08;1.30;;;6.60;99.90;;;;;;12432051;28;20120;-83
2022/04/02 13:26:29;;;;;;;2.00;1.10;;;5.90;99.90;;;;;;12426382;28;20050;-81
2022/04/02 13:32:31;;;;;;;2.92;1.35;;;5.60;99.90;;;;;;12425400;28;20049;-81
2022/04/02 13:38:57;;;;;;;2.92;1.30;;;6.30;99.90;;;;;;12437331;28;20060;-82
2022/04/02 13:45:03;;;;;;;3.40;1.42;;;5.80;99.90;;;;;;12425740;28;20426;-83
2022/04/02 13:51:12;;;;;;;4.90;1.90;;;5.90;99.90;;;;;;12434675;28;20392;-80
2022/04/02 13:57:18;;;;;;;1.92;1.10;;;6.40;99.90;;;;;;12441039;28;20106;-80
2022/04/02 14:03:21;;;;;;;2.33;1.20;;;6.20;99.90;;;;;;12445872;28;20042;-83
2022/04/02 14:09:28;;;;;;;2.35;1.15;;;6.00;99.90;;;;;;12482825;28;20045;-82
2022/04/02 14:15:34;;;;;;;3.45;1.58;;;6.40;99.90;;;;;;12432076;28;20046;-81
2022/04/02 14:21:37;;;;;;;2.28;1.10;;;6.80;99.90;;;;;;12418454;28;20405;-83
2022/04/02 14:28:00;;;;;;;2.72;1.30;;;6.50;99.90;;;;;;12430770;28;20164;-83
2022/04/02 14:34:17;;;;;;;3.03;1.20;;;6.00;99.90;;;;;;12430004;28;20497;-83
2022/04/02 14:40:39;;;;;;;4.55;1.20;;;6.00;99.90;;;;;;12425203;28;20058;-83
2022/04/02 14:46:56;;;;;;;2.22;1.40;;;6.40;99.90;;;;;;12445208;28;20496;-83
2022/04/02 14:53:34;;;;;;;2.85;1.23;;;6.30;99.90;;;;;;12425957;28;20884;-80
2022/04/02 15:00:17;;;;;;;3.35;1.48;;;5.80;99.90;;;;;;12345461;28;20508;-83
2022/04/02 15:06:44;;;;;;;2.58;1.15;;;6.00;99.90;;;;;;12412338;28;20486;-83
2022/04/02 15:12:54;;;;;;;2.00;1.30;;;6.70;99.90;;;;;;12422924;28;20049;-82
2022/04/02 15:19:11;;;;;;;1.92;1.20;;;7.20;99.90;;;;;;12426265;28;20872;-81
2022/04/02 15:25:22;;;;;;;2.00;1.20;;;7.20;99.90;;;;;;12423782;28;20099;-83
2022/04/02 15:32:00;;;;;;;2.60;1.48;;;6.40;99.90;;;;;;12422346;28;20056;-83
2022/04/02 15:38:11;;;;;;;3.03;1.30;;;5.80;99.90;;;;;;12432509;28;20100;-81
2022/04/02 15:44:14;;;;;;;2.40;1.48;;;6.20;99.90;;;;;;12434747;28;20122;-80
2022/04/02 15:50:22;;;;;;;2.60;1.33;;;6.70;99.90;;;;;;12438495;28;20053;-83
2022/04/02 15:57:04;;;;;;;2.13;1.20;;;7.00;99.90;;;;;;12427698;28;20144;-82
2022/04/02 16:03:06;;;;;;;4.20;1.38;;;6.30;99.90;;;;;;12409830;28;20634;-81
2022/04/02 16:09:20;;;;;;;2.72;1.30;;;5.70;99.90;;;;;;12422097;28;20058;-83
2022/04/02 16:15:25;;;;;;;2.43;1.30;;;5.40;99.90;;;;;;12429446;28;20556;-81
2022/04/02 16:21:28;;;;;;;4.43;1.55;;;5.40;99.90;;;;;;12427761;28;20505;-82
2022/04/02 16:27:31;;;;;;;3.80;1.70;;;5.40;99.90;;;;;;12429707;28;20042;-82
2022/04/02 16:33:34;;;;;;;2.20;1.40;;;5.60;99.90;;;;;;12426685;28;20387;-80
2022/04/02 16:39:43;;;;;;;3.83;1.30;;;5.50;99.90;;;;;;12426376;28;20049;-80
2022/04/02 16:46:04;;;;;;;5.38;1.67;;;5.40;99.90;;;;;;12435553;28;20057;-81
2022/04/02 16:52:31;;;;;;;2.53;1.40;;;5.30;99.90;;;;;;12433450;28;20049;-84
2022/04/02 16:58:55;;;;;;;2.75;1.40;;;5.20;99.90;;;;;;12442380;28;20068;-83
2022/04/02 17:04:57;;;;;;;2.03;1.00;;;5.00;99.90;;;;;;12430613;28;20425;-81
2022/04/02 17:11:00;;;;;;;3.30;1.30;;;4.80;99.90;;;;;;12429066;28;20080;-80
2022/04/02 17:17:05;;;;;;;4.55;1.63;;;4.80;99.90;;;;;;12445392;28;20050;-80
2022/04/02 17:23:07;;;;;;;3.78;1.90;;;4.50;99.90;;;;;;12466280;28;20050;-80
2022/04/02 17:29:18;;;;;;;4.00;1.48;;;4.40;99.90;;;;;;12448346;28;20102;-81
2022/04/02 17:35:22;;;;;;;2.20;1.20;;;4.30;99.90;;;;;;12423448;28;20041;-83
2022/04/02 17:41:34;;;;;;;3.15;1.40;;;4.20;99.90;;;;;;12438870;28;20062;-79
2022/04/02 17:47:35;;;;;;;3.88;1.25;;;4.10;99.90;;;;;;12430113;28;20780;-80
2022/04/02 17:53:42;;;;;;;2.75;1.33;;;3.90;99.90;;;;;;12438793;28;20047;-80
2022/04/02 17:59:50;;;;;;;3.03;1.60;;;3.80;99.90;;;;;;12430588;28;20060;-83
2022/04/02 18:05:52;;;;;;;2.58;1.40;;;3.80;99.90;;;;;;12428424;28;20609;-83
2022/04/02 18:11:54;;;;;;;3.30;1.75;;;3.50;99.90;;;;;;12429862;28;20042;-79
2022/04/02 18:18:00;;;;;;;5.78;1.33;;;3.40;99.90;;;;;;12423506;28;20042;-82
2022/04/02 18:24:03;;;;;;;4.60;1.80;;;3.10;99.90;;;;;;12422719;28;20053;-80
2022/04/02 18:30:06;;;;;;;2.90;1.77;;;3.00;99.90;;;;;;12406885;28;20053;-80
2022/04/02 18:36:08;;;;;;;3.22;1.63;;;3.20;99.90;;;;;;12425839;28;20041;-83
2022/04/02 18:42:10;;;;;;;4.57;1.95;;;3.10;99.90;;;;;;12427638;28;20551;-83
2022/04/02 18:48:12;;;;;;;3.28;1.80;;;2.90;99.90;;;;;;12425608;28;20065;-80
2022/04/02 18:54:15;;;;;;;4.18;2.25;;;2.90;99.90;;;;;;12426721;28;20049;-80
2022/04/02 19:00:16;;;;;;;3.58;1.55;;;2.70;99.90;;;;;;12439025;28;20049;-79
2022/04/02 19:06:18;;;;;;;3.75;1.80;;;2.50;99.90;;;;;;12415594;28;20053;-81
2022/04/02 19:12:20;;;;;;;3.88;1.73;;;2.60;99.90;;;;;;12427585;28;20052;-82
2022/04/02 19:18:22;;;;;;;6.20;1.52;;;2.70;99.90;;;;;;12424374;28;20500;-80
2022/04/02 19:24:24;;;;;;;4.38;1.90;;;2.70;99.90;;;;;;12425936;28;20057;-80
2022/04/02 19:30:25;;;;;;;3.42;1.90;;;2.70;99.90;;;;;;12425744;28;20128;-82
2022/04/02 19:36:27;;;;;;;3.50;1.80;;;2.70;99.90;;;;;;12425646;28;20108;-79
2022/04/02 19:42:29;;;;;;;3.75;1.83;;;2.70;99.90;;;;;;12428489;28;20062;-82
2022/04/02 19:48:31;;;;;;;3.85;2.05;;;2.50;99.90;;;;;;12439635;28;20580;-80
2022/04/02 19:54:33;;;;;;;8.45;2.20;;;2.40;99.90;;;;;;12429920;28;20050;-80
2022/04/02 20:00:35;;;;;;;7.50;2.70;;;2.40;99.90;;;;;;12438852;28;20100;-81
2022/04/02 20:06:37;;;;;;;3.38;2.00;;;2.30;99.90;;;;;;12447082;28;20677;-83
2022/04/02 20:12:41;;;;;;;4.10;2.15;;;2.00;99.90;;;;;;12433344;28;20045;-82
2022/04/02 20:18:43;;;;;;;4.57;2.47;;;2.00;99.90;;;;;;12431401;28;20123;-80
2022/04/02 20:24:45;;;;;;;5.10;2.30;;;2.00;99.90;;;;;;12424883;28;20097;-81
2022/04/02 20:30:47;;;;;;;3.55;2.00;;;2.10;99.90;;;;;;12435433;28;20041;-82
2022/04/02 20:36:49;;;;;;;4.18;2.22;;;2.10;99.90;;;;;;12428537;28;20057;-83
2022/04/02 20:42:51;;;;;;;8.80;2.28;;;2.10;99.90;;;;;;12432443;28;20132;-83
2022/04/02 20:48:53;;;;;;;5.50;2.20;;;2.10;99.90;;;;;;12432008;28;20595;-81
2022/04/02 20:54:55;;;;;;;3.80;2.28;;;2.00;99.90;;;;;;12426213;28;20048;-81
2022/04/02 21:00:57;;;;;;;5.13;2.22;;;2.00;99.90;;;;;;12433118;28;20523;-80
2022/04/02 21:06:59;;;;;;;3.10;1.80;;;1.90;99.90;;;;;;12430156;28;20461;-83
2022/04/02 21:13:01;;;;;;;7.25;2.10;;;1.80;99.90;;;;;;12424879;28;20049;-81
2022/04/02 21:19:03;;;;;;;3.55;1.98;;;1.70;99.90;;;;;;12435065;28;20104;-81
2022/04/02 21:25:05;;;;;;;5.50;2.20;;;1.60;99.90;;;;;;12423763;28;20053;-79
2022/04/02 21:31:07;;;;;;;3.83;2.08;;;1.50;99.90;;;;;;12429244;28;20127;-82
2022/04/02 21:37:09;;;;;;;4.18;2.42;;;1.30;99.90;;;;;;12434004;28;20057;-82
2022/04/02 21:43:11;;;;;;;4.65;2.40;;;1.20;99.90;;;;;;12459032;28;20034;-82
2022/04/02 21:49:12;;;;;;;4.40;2.20;;;1.10;99.90;;;;;;12449167;28;20196;-82
2022/04/02 21:55:14;;;;;;;5.32;2.50;;;1.10;99.90;;;;;;12425686;28;20045;-82
2022/04/02 22:01:32;;;;;;;4.78;2.50;;;1.00;99.90;;;;;;12424149;28;20103;-82
2022/04/02 22:07:36;;;;;;;5.35;2.60;;;0.90;99.90;;;;;;12423759;28;20046;-80
2022/04/02 22:13:37;;;;;;;3.72;2.13;;;0.80;99.90;;;;;;12427682;28;20045;-82
2022/04/02 22:19:39;;;;;;;4.53;2.30;;;0.70;99.90;;;;;;12423489;28;20111;-81
2022/04/02 22:25:41;;;;;;;6.28;2.80;;;0.70;99.90;;;;;;12422690;28;20164;-82
2022/04/02 22:31:44;;;;;;;7.57;2.88;;;0.50;99.90;;;;;;12426754;28;20088;-82
2022/04/02 22:37:47;;;;;;;8.03;2.37;;;0.50;99.90;;;;;;12424168;28;20083;-80
2022/04/02 22:43:49;;;;;;;4.43;2.60;;;0.40;99.90;;;;;;12427605;28;20630;-81
2022/04/02 22:49:50;;;;;;;7.90;2.60;;;0.40;99.90;;;;;;12424975;28;20110;-80
2022/04/02 22:55:52;;;;;;;4.97;2.45;;;0.30;99.90;;;;;;12423803;28;20065;-83
2022/04/02 23:01:54;;;;;;;3.90;2.30;;;0.40;99.90;;;;;;12427176;28;20074;-80
2022/04/02 23:07:56;;;;;;;5.75;2.53;;;0.40;99.90;;;;;;12422028;28;20461;-82
2022/04/02 23:13:58;;;;;;;3.92;2.28;;;0.30;99.90;;;;;;12427654;28;20047;-83
2022/04/02 23:20:00;;;;;;;7.63;3.10;;;0.30;99.90;;;;;;12424207;28;20053;-80
2022/04/02 23:26:02;;;;;;;4.45;2.63;;;0.30;99.90;;;;;;12410627;28;20121;-82
2022/04/02 23:32:05;;;;;;;4.75;2.67;;;0.30;99.90;;;;;;12418915;28;20108;-81
2022/04/02 23:38:08;;;;;;;5.05;2.83;;;0.30;99.90;;;;;;12421452;28;20068;-80
2022/04/02 23:44:10;;;;;;;3.85;2.50;;;0.20;99.90;;;;;;12429145;28;20068;-82
2022/04/02 23:50:12;;;;;;;5.88;2.45;;;0.30;99.90;;;;;;12408466;28;20062;-82
2022/04/02 23:56:13;;;;;;;8.40;3.17;;;0.10;99.90;;;;;;12419922;28;20096;-80
